sensor_id;sensor_type;location;lat;lon;timestamp;P1;durP1;ratioP1;P2;durP2;ratioP2
52614;SDS011;38508;53.158;6.614;2023-04-10T00:01:38;53.53;;;27.83;;
52614;SDS011;38508;53.158;6.614;2023-04-10T00:04:04;55.67;;;29.02;;
52614;SDS011;38508;53.158;6.614;2023-04-10T00:06:31;56.72;;;29.05;;
52614;SDS011;38508;53.158;6.614;2023-04-10T00:08:57;54.75;;;29.15;;
52614;SDS011;38508;53.158;6.614;2023-04-10T00:11:23;54.42;;;28.80;;
52614;SDS011;38508;53.158;6.614;2023-04-10T00:13:50;61.25;;;29.60;;
52614;SDS011;38508;53.158;6.614;2023-04-10T00:16:16;63.45;;;32.13;;
52614;SDS011;38508;53.158;6.614;2023-04-10T00:18:42;57.55;;;29.17;;
52614;SDS011;38508;53.158;6.614;2023-04-10T00:21:08;67.20;;;32.20;;
52614;SDS011;38508;53.158;6.614;2023-04-10T00:23:33;67.30;;;31.55;;
52614;SDS011;38508;53.158;6.614;2023-04-10T00:26:02;68.32;;;33.05;;
52614;SDS011;38508;53.158;6.614;2023-04-10T00:28:28;65.82;;;32.78;;
52614;SDS011;38508;53.158;6.614;2023-04-10T00:30:53;63.75;;;32.85;;
52614;SDS011;38508;53.158;6.614;2023-04-10T00:33:19;65.55;;;32.45;;
52614;SDS011;38508;53.158;6.614;2023-04-10T00:35:45;68.75;;;34.13;;
52614;SDS011;38508;53.158;6.614;2023-04-10T00:38:11;72.75;;;35.63;;
52614;SDS011;38508;53.158;6.614;2023-04-10T00:40:37;76.45;;;36.40;;
52614;SDS011;38508;53.158;6.614;2023-04-10T00:43:03;87.20;;;38.33;;
52614;SDS011;38508;53.158;6.614;2023-04-10T00:45:28;86.85;;;40.05;;
52614;SDS011;38508;53.158;6.614;2023-04-10T00:47:54;94.25;;;40.85;;
52614;SDS011;38508;53.158;6.614;2023-04-10T00:50:20;90.63;;;38.28;;
52614;SDS011;38508;53.158;6.614;2023-04-10T00:52:46;96.90;;;42.05;;
52614;SDS011;38508;53.158;6.614;2023-04-10T00:55:13;94.18;;;42.10;;
52614;SDS011;38508;53.158;6.614;2023-04-10T00:57:41;90.30;;;41.92;;
52614;SDS011;38508;53.158;6.614;2023-04-10T01:00:10;89.53;;;39.88;;
52614;SDS011;38508;53.158;6.614;2023-04-10T01:02:37;94.22;;;40.63;;
52614;SDS011;38508;53.158;6.614;2023-04-10T01:05:03;90.03;;;40.97;;
52614;SDS011;38508;53.158;6.614;2023-04-10T01:10:35;94.03;;;41.58;;
52614;SDS011;38508;53.158;6.614;2023-04-10T01:14:12;102.65;;;46.25;;
52614;SDS011;38508;53.158;6.614;2023-04-10T01:18:56;98.00;;;44.17;;
52614;SDS011;38508;53.158;6.614;2023-04-10T01:21:45;101.88;;;45.38;;
52614;SDS011;38508;53.158;6.614;2023-04-10T01:30:11;96.60;;;45.08;;
52614;SDS011;38508;53.158;6.614;2023-04-10T01:32:40;106.03;;;44.53;;
52614;SDS011;38508;53.158;6.614;2023-04-10T01:35:08;102.57;;;45.95;;
52614;SDS011;38508;53.158;6.614;2023-04-10T01:37:36;98.55;;;44.65;;
52614;SDS011;38508;53.158;6.614;2023-04-10T01:40:07;103.00;;;44.53;;
52614;SDS011;38508;53.158;6.614;2023-04-10T01:42:38;93.03;;;42.63;;
52614;SDS011;38508;53.158;6.614;2023-04-10T01:45:07;98.03;;;45.78;;
52614;SDS011;38508;53.158;6.614;2023-04-10T01:47:37;97.97;;;43.22;;
52614;SDS011;38508;53.158;6.614;2023-04-10T01:50:03;93.18;;;43.83;;
52614;SDS011;38508;53.158;6.614;2023-04-10T01:52:31;95.55;;;43.22;;
52614;SDS011;38508;53.158;6.614;2023-04-10T01:54:58;93.28;;;44.38;;
52614;SDS011;38508;53.158;6.614;2023-04-10T01:57:25;82.25;;;41.70;;
52614;SDS011;38508;53.158;6.614;2023-04-10T01:59:51;83.05;;;40.90;;
52614;SDS011;38508;53.158;6.614;2023-04-10T02:02:17;85.65;;;41.30;;
52614;SDS011;38508;53.158;6.614;2023-04-10T02:04:42;84.85;;;41.25;;
52614;SDS011;38508;53.158;6.614;2023-04-10T02:07:13;79.57;;;39.80;;
52614;SDS011;38508;53.158;6.614;2023-04-10T02:12:31;81.03;;;38.45;;
52614;SDS011;38508;53.158;6.614;2023-04-10T02:15:00;77.68;;;38.45;;
52614;SDS011;38508;53.158;6.614;2023-04-10T02:17:29;79.40;;;40.55;;
52614;SDS011;38508;53.158;6.614;2023-04-10T02:19:58;76.03;;;38.42;;
52614;SDS011;38508;53.158;6.614;2023-04-10T02:22:25;72.03;;;38.35;;
52614;SDS011;38508;53.158;6.614;2023-04-10T02:24:52;79.38;;;41.17;;
52614;SDS011;38508;53.158;6.614;2023-04-10T02:27:30;78.65;;;40.03;;
52614;SDS011;38508;53.158;6.614;2023-04-10T02:29:58;68.13;;;37.35;;
52614;SDS011;38508;53.158;6.614;2023-04-10T02:32:24;76.75;;;39.05;;
52614;SDS011;38508;53.158;6.614;2023-04-10T02:34:51;77.72;;;41.15;;
52614;SDS011;38508;53.158;6.614;2023-04-10T02:37:17;74.88;;;40.15;;
52614;SDS011;38508;53.158;6.614;2023-04-10T02:39:42;72.25;;;38.38;;
52614;SDS011;38508;53.158;6.614;2023-04-10T02:42:08;78.93;;;40.22;;
52614;SDS011;38508;53.158;6.614;2023-04-10T02:44:34;78.22;;;39.72;;
52614;SDS011;38508;53.158;6.614;2023-04-10T02:47:00;73.50;;;39.60;;
52614;SDS011;38508;53.158;6.614;2023-04-10T02:49:25;81.15;;;41.25;;
52614;SDS011;38508;53.158;6.614;2023-04-10T02:51:51;83.80;;;41.53;;
52614;SDS011;38508;53.158;6.614;2023-04-10T02:54:17;79.82;;;42.15;;
52614;SDS011;38508;53.158;6.614;2023-04-10T02:56:42;86.15;;;41.85;;
52614;SDS011;38508;53.158;6.614;2023-04-10T02:59:08;81.18;;;40.10;;
52614;SDS011;38508;53.158;6.614;2023-04-10T03:01:34;80.90;;;41.35;;
52614;SDS011;38508;53.158;6.614;2023-04-10T03:03:59;84.75;;;41.50;;
52614;SDS011;38508;53.158;6.614;2023-04-10T03:06:27;83.75;;;43.05;;
52614;SDS011;38508;53.158;6.614;2023-04-10T03:08:53;89.13;;;44.90;;
52614;SDS011;38508;53.158;6.614;2023-04-10T03:11:19;83.75;;;42.50;;
52614;SDS011;38508;53.158;6.614;2023-04-10T03:13:45;90.43;;;44.45;;
52614;SDS011;38508;53.158;6.614;2023-04-10T03:16:11;86.18;;;42.55;;
52614;SDS011;38508;53.158;6.614;2023-04-10T03:18:37;85.05;;;41.40;;
52614;SDS011;38508;53.158;6.614;2023-04-10T03:21:02;84.72;;;42.97;;
52614;SDS011;38508;53.158;6.614;2023-04-10T03:23:28;86.35;;;44.40;;
52614;SDS011;38508;53.158;6.614;2023-04-10T03:25:54;91.35;;;45.08;;
52614;SDS011;38508;53.158;6.614;2023-04-10T03:28:20;84.70;;;42.45;;
52614;SDS011;38508;53.158;6.614;2023-04-10T03:30:46;84.88;;;41.75;;
52614;SDS011;38508;53.158;6.614;2023-04-10T03:33:13;83.63;;;43.67;;
52614;SDS011;38508;53.158;6.614;2023-04-10T03:35:39;83.47;;;42.30;;
52614;SDS011;38508;53.158;6.614;2023-04-10T03:38:05;81.32;;;42.03;;
52614;SDS011;38508;53.158;6.614;2023-04-10T03:40:30;90.75;;;45.53;;
52614;SDS011;38508;53.158;6.614;2023-04-10T03:42:58;83.70;;;42.08;;
52614;SDS011;38508;53.158;6.614;2023-04-10T03:45:24;89.28;;;42.78;;
52614;SDS011;38508;53.158;6.614;2023-04-10T03:47:50;85.22;;;43.50;;
52614;SDS011;38508;53.158;6.614;2023-04-10T03:50:16;80.75;;;41.97;;
52614;SDS011;38508;53.158;6.614;2023-04-10T03:52:42;87.43;;;43.92;;
52614;SDS011;38508;53.158;6.614;2023-04-10T03:55:08;85.35;;;42.42;;
52614;SDS011;38508;53.158;6.614;2023-04-10T03:57:34;86.05;;;42.15;;
52614;SDS011;38508;53.158;6.614;2023-04-10T03:59:59;78.80;;;39.63;;
52614;SDS011;38508;53.158;6.614;2023-04-10T04:02:25;77.35;;;39.80;;
52614;SDS011;38508;53.158;6.614;2023-04-10T04:04:51;78.00;;;39.75;;
52614;SDS011;38508;53.158;6.614;2023-04-10T04:07:17;78.10;;;40.03;;
52614;SDS011;38508;53.158;6.614;2023-04-10T04:09:42;75.32;;;38.97;;
52614;SDS011;38508;53.158;6.614;2023-04-10T04:12:09;76.60;;;38.38;;
52614;SDS011;38508;53.158;6.614;2023-04-10T04:14:34;78.22;;;40.28;;
52614;SDS011;38508;53.158;6.614;2023-04-10T04:17:00;78.90;;;40.72;;
52614;SDS011;38508;53.158;6.614;2023-04-10T04:19:25;77.03;;;39.95;;
52614;SDS011;38508;53.158;6.614;2023-04-10T04:21:51;71.82;;;38.42;;
52614;SDS011;38508;53.158;6.614;2023-04-10T04:24:17;76.22;;;39.67;;
52614;SDS011;38508;53.158;6.614;2023-04-10T04:26:42;77.10;;;39.45;;
52614;SDS011;38508;53.158;6.614;2023-04-10T04:29:08;77.55;;;39.15;;
52614;SDS011;38508;53.158;6.614;2023-04-10T04:31:34;71.53;;;38.35;;
52614;SDS011;38508;53.158;6.614;2023-04-10T04:34:00;76.15;;;40.08;;
52614;SDS011;38508;53.158;6.614;2023-04-10T04:36:26;79.78;;;40.08;;
52614;SDS011;38508;53.158;6.614;2023-04-10T04:38:52;71.22;;;37.55;;
52614;SDS011;38508;53.158;6.614;2023-04-10T04:41:18;71.80;;;38.72;;
52614;SDS011;38508;53.158;6.614;2023-04-10T04:43:44;68.90;;;37.65;;
52614;SDS011;38508;53.158;6.614;2023-04-10T04:46:11;74.28;;;39.95;;
52614;SDS011;38508;53.158;6.614;2023-04-10T04:48:37;73.95;;;37.53;;
52614;SDS011;38508;53.158;6.614;2023-04-10T04:51:05;75.47;;;38.72;;
52614;SDS011;38508;53.158;6.614;2023-04-10T04:53:31;77.63;;;40.35;;
52614;SDS011;38508;53.158;6.614;2023-04-10T04:55:57;77.68;;;41.45;;
52614;SDS011;38508;53.158;6.614;2023-04-10T04:58:22;79.00;;;39.47;;
52614;SDS011;38508;53.158;6.614;2023-04-10T05:00:50;74.10;;;38.75;;
52614;SDS011;38508;53.158;6.614;2023-04-10T05:03:16;72.25;;;38.97;;
52614;SDS011;38508;53.158;6.614;2023-04-10T05:05:42;77.90;;;40.60;;
52614;SDS011;38508;53.158;6.614;2023-04-10T05:08:08;74.05;;;40.50;;
52614;SDS011;38508;53.158;6.614;2023-04-10T05:10:34;82.05;;;42.25;;
52614;SDS011;38508;53.158;6.614;2023-04-10T05:13:00;78.38;;;39.67;;
52614;SDS011;38508;53.158;6.614;2023-04-10T05:15:26;74.50;;;39.30;;
52614;SDS011;38508;53.158;6.614;2023-04-10T05:17:52;79.60;;;40.25;;
52614;SDS011;38508;53.158;6.614;2023-04-10T05:20:18;77.03;;;38.45;;
52614;SDS011;38508;53.158;6.614;2023-04-10T05:22:45;71.35;;;39.42;;
52614;SDS011;38508;53.158;6.614;2023-04-10T05:25:11;72.32;;;39.55;;
52614;SDS011;38508;53.158;6.614;2023-04-10T05:27:37;71.57;;;39.13;;
52614;SDS011;38508;53.158;6.614;2023-04-10T05:30:03;75.78;;;39.25;;
52614;SDS011;38508;53.158;6.614;2023-04-10T05:32:29;75.10;;;39.90;;
52614;SDS011;38508;53.158;6.614;2023-04-10T05:34:54;68.65;;;38.05;;
52614;SDS011;38508;53.158;6.614;2023-04-10T05:37:20;72.75;;;39.80;;
52614;SDS011;38508;53.158;6.614;2023-04-10T05:39:46;75.75;;;39.97;;
52614;SDS011;38508;53.158;6.614;2023-04-10T05:42:11;78.40;;;38.80;;
52614;SDS011;38508;53.158;6.614;2023-04-10T05:44:38;73.50;;;38.45;;
52614;SDS011;38508;53.158;6.614;2023-04-10T05:47:03;71.47;;;38.97;;
52614;SDS011;38508;53.158;6.614;2023-04-10T05:49:29;67.78;;;38.25;;
52614;SDS011;38508;53.158;6.614;2023-04-10T05:51:55;68.72;;;38.00;;
52614;SDS011;38508;53.158;6.614;2023-04-10T05:54:21;73.95;;;39.90;;
52614;SDS011;38508;53.158;6.614;2023-04-10T05:56:46;76.38;;;38.97;;
52614;SDS011;38508;53.158;6.614;2023-04-10T05:59:12;65.70;;;37.20;;
52614;SDS011;38508;53.158;6.614;2023-04-10T06:01:38;69.15;;;38.90;;
52614;SDS011;38508;53.158;6.614;2023-04-10T06:04:04;74.25;;;39.47;;
52614;SDS011;38508;53.158;6.614;2023-04-10T06:06:30;71.60;;;37.60;;
52614;SDS011;38508;53.158;6.614;2023-04-10T06:08:57;65.78;;;35.80;;
52614;SDS011;38508;53.158;6.614;2023-04-10T06:11:23;67.65;;;37.30;;
52614;SDS011;38508;53.158;6.614;2023-04-10T06:13:48;65.80;;;36.30;;
52614;SDS011;38508;53.158;6.614;2023-04-10T06:16:14;65.82;;;35.70;;
52614;SDS011;38508;53.158;6.614;2023-04-10T06:18:40;66.65;;;35.22;;
52614;SDS011;38508;53.158;6.614;2023-04-10T06:21:06;62.75;;;34.28;;
52614;SDS011;38508;53.158;6.614;2023-04-10T06:23:32;63.13;;;33.40;;
52614;SDS011;38508;53.158;6.614;2023-04-10T06:25:58;62.33;;;32.80;;
52614;SDS011;38508;53.158;6.614;2023-04-10T06:28:25;67.60;;;34.95;;
52614;SDS011;38508;53.158;6.614;2023-04-10T06:30:51;64.60;;;33.63;;
52614;SDS011;38508;53.158;6.614;2023-04-10T06:33:16;61.95;;;35.28;;
52614;SDS011;38508;53.158;6.614;2023-04-10T06:35:42;60.15;;;33.33;;
52614;SDS011;38508;53.158;6.614;2023-04-10T06:38:08;67.40;;;36.67;;
52614;SDS011;38508;53.158;6.614;2023-04-10T06:40:33;60.95;;;34.38;;
52614;SDS011;38508;53.158;6.614;2023-04-10T06:42:59;63.65;;;34.53;;
52614;SDS011;38508;53.158;6.614;2023-04-10T06:45:25;64.10;;;35.75;;
52614;SDS011;38508;53.158;6.614;2023-04-10T06:47:51;64.45;;;35.08;;
52614;SDS011;38508;53.158;6.614;2023-04-10T06:50:17;64.60;;;34.22;;
52614;SDS011;38508;53.158;6.614;2023-04-10T06:52:43;62.30;;;33.13;;
52614;SDS011;38508;53.158;6.614;2023-04-10T06:55:10;62.38;;;34.22;;
52614;SDS011;38508;53.158;6.614;2023-04-10T06:57:37;61.28;;;35.38;;
52614;SDS011;38508;53.158;6.614;2023-04-10T07:00:03;59.67;;;33.25;;
52614;SDS011;38508;53.158;6.614;2023-04-10T07:02:30;65.53;;;35.22;;
52614;SDS011;38508;53.158;6.614;2023-04-10T07:04:56;61.17;;;33.55;;
52614;SDS011;38508;53.158;6.614;2023-04-10T07:07:22;58.38;;;33.03;;
52614;SDS011;38508;53.158;6.614;2023-04-10T07:09:47;62.80;;;33.50;;
52614;SDS011;38508;53.158;6.614;2023-04-10T07:12:13;62.83;;;33.50;;
52614;SDS011;38508;53.158;6.614;2023-04-10T07:14:39;57.05;;;33.25;;
52614;SDS011;38508;53.158;6.614;2023-04-10T07:17:05;61.30;;;33.00;;
52614;SDS011;38508;53.158;6.614;2023-04-10T07:19:31;54.92;;;32.13;;
52614;SDS011;38508;53.158;6.614;2023-04-10T07:21:56;52.05;;;31.98;;
52614;SDS011;38508;53.158;6.614;2023-04-10T07:24:22;58.78;;;32.50;;
52614;SDS011;38508;53.158;6.614;2023-04-10T07:26:48;60.50;;;33.90;;
52614;SDS011;38508;53.158;6.614;2023-04-10T07:29:14;56.70;;;30.90;;
52614;SDS011;38508;53.158;6.614;2023-04-10T07:31:40;57.78;;;31.92;;
52614;SDS011;38508;53.158;6.614;2023-04-10T07:34:06;56.33;;;30.98;;
52614;SDS011;38508;53.158;6.614;2023-04-10T07:36:32;59.42;;;31.60;;
52614;SDS011;38508;53.158;6.614;2023-04-10T07:38:58;58.50;;;32.22;;
52614;SDS011;38508;53.158;6.614;2023-04-10T07:41:23;55.53;;;30.48;;
52614;SDS011;38508;53.158;6.614;2023-04-10T07:43:49;52.55;;;30.23;;
52614;SDS011;38508;53.158;6.614;2023-04-10T07:46:15;56.10;;;30.23;;
52614;SDS011;38508;53.158;6.614;2023-04-10T07:48:41;53.03;;;28.80;;
52614;SDS011;38508;53.158;6.614;2023-04-10T07:51:08;51.40;;;28.38;;
52614;SDS011;38508;53.158;6.614;2023-04-10T07:53:34;50.80;;;28.90;;
52614;SDS011;38508;53.158;6.614;2023-04-10T07:56:01;52.47;;;27.95;;
52614;SDS011;38508;53.158;6.614;2023-04-10T07:58:27;48.55;;;28.08;;
52614;SDS011;38508;53.158;6.614;2023-04-10T08:00:52;49.97;;;28.63;;
52614;SDS011;38508;53.158;6.614;2023-04-10T08:03:18;46.60;;;26.13;;
52614;SDS011;38508;53.158;6.614;2023-04-10T08:05:44;45.75;;;26.88;;
52614;SDS011;38508;53.158;6.614;2023-04-10T08:08:10;45.35;;;27.48;;
52614;SDS011;38508;53.158;6.614;2023-04-10T08:10:36;45.55;;;26.85;;
52614;SDS011;38508;53.158;6.614;2023-04-10T08:13:03;47.50;;;26.52;;
52614;SDS011;38508;53.158;6.614;2023-04-10T08:15:29;43.25;;;25.50;;
52614;SDS011;38508;53.158;6.614;2023-04-10T08:17:55;44.22;;;25.40;;
52614;SDS011;38508;53.158;6.614;2023-04-10T08:20:20;45.45;;;24.35;;
52614;SDS011;38508;53.158;6.614;2023-04-10T08:22:46;43.92;;;24.15;;
52614;SDS011;38508;53.158;6.614;2023-04-10T08:25:12;44.95;;;24.88;;
52614;SDS011;38508;53.158;6.614;2023-04-10T08:27:38;47.20;;;26.38;;
52614;SDS011;38508;53.158;6.614;2023-04-10T08:30:03;43.45;;;25.17;;
52614;SDS011;38508;53.158;6.614;2023-04-10T08:32:30;43.03;;;25.45;;
52614;SDS011;38508;53.158;6.614;2023-04-10T08:34:55;44.95;;;24.88;;
52614;SDS011;38508;53.158;6.614;2023-04-10T08:37:21;43.40;;;25.38;;
52614;SDS011;38508;53.158;6.614;2023-04-10T08:39:47;39.35;;;23.25;;
52614;SDS011;38508;53.158;6.614;2023-04-10T08:42:13;42.75;;;24.30;;
52614;SDS011;38508;53.158;6.614;2023-04-10T08:44:38;41.97;;;23.70;;
52614;SDS011;38508;53.158;6.614;2023-04-10T08:47:05;43.10;;;25.33;;
52614;SDS011;38508;53.158;6.614;2023-04-10T08:49:36;40.58;;;23.67;;
52614;SDS011;38508;53.158;6.614;2023-04-10T08:52:13;46.42;;;25.00;;
52614;SDS011;38508;53.158;6.614;2023-04-10T08:54:42;42.83;;;23.30;;
52614;SDS011;38508;53.158;6.614;2023-04-10T08:57:12;40.17;;;22.88;;
52614;SDS011;38508;53.158;6.614;2023-04-10T08:59:45;38.75;;;23.05;;
52614;SDS011;38508;53.158;6.614;2023-04-10T09:02:11;36.60;;;21.83;;
52614;SDS011;38508;53.158;6.614;2023-04-10T09:04:36;34.95;;;21.15;;
52614;SDS011;38508;53.158;6.614;2023-04-10T09:07:02;38.13;;;20.83;;
52614;SDS011;38508;53.158;6.614;2023-04-10T09:09:28;31.63;;;19.92;;
52614;SDS011;38508;53.158;6.614;2023-04-10T09:11:56;31.63;;;19.00;;
52614;SDS011;38508;53.158;6.614;2023-04-10T09:17:04;33.90;;;19.90;;
52614;SDS011;38508;53.158;6.614;2023-04-10T09:19:48;34.38;;;19.75;;
52614;SDS011;38508;53.158;6.614;2023-04-10T09:22:30;34.60;;;19.98;;
52614;SDS011;38508;53.158;6.614;2023-04-10T09:24:58;30.45;;;18.08;;
52614;SDS011;38508;53.158;6.614;2023-04-10T09:27:28;28.75;;;17.05;;
52614;SDS011;38508;53.158;6.614;2023-04-10T09:29:59;28.58;;;18.48;;
52614;SDS011;38508;53.158;6.614;2023-04-10T09:32:44;30.27;;;17.05;;
52614;SDS011;38508;53.158;6.614;2023-04-10T09:35:13;27.35;;;16.92;;
52614;SDS011;38508;53.158;6.614;2023-04-10T09:37:41;33.22;;;18.02;;
52614;SDS011;38508;53.158;6.614;2023-04-10T09:40:18;27.00;;;16.77;;
52614;SDS011;38508;53.158;6.614;2023-04-10T09:42:46;30.45;;;17.67;;
52614;SDS011;38508;53.158;6.614;2023-04-10T09:45:11;29.13;;;16.85;;
52614;SDS011;38508;53.158;6.614;2023-04-10T09:47:37;27.23;;;15.77;;
52614;SDS011;38508;53.158;6.614;2023-04-10T09:50:03;31.17;;;17.67;;
52614;SDS011;38508;53.158;6.614;2023-04-10T09:52:31;28.00;;;16.27;;
52614;SDS011;38508;53.158;6.614;2023-04-10T09:54:58;23.52;;;14.98;;
52614;SDS011;38508;53.158;6.614;2023-04-10T09:57:28;24.83;;;14.60;;
52614;SDS011;38508;53.158;6.614;2023-04-10T09:59:56;23.13;;;13.88;;
52614;SDS011;38508;53.158;6.614;2023-04-10T10:02:24;22.38;;;15.02;;
52614;SDS011;38508;53.158;6.614;2023-04-10T10:04:53;27.85;;;15.55;;
52614;SDS011;38508;53.158;6.614;2023-04-10T10:07:20;22.60;;;13.95;;
52614;SDS011;38508;53.158;6.614;2023-04-10T10:09:50;25.02;;;16.02;;
52614;SDS011;38508;53.158;6.614;2023-04-10T10:12:23;24.58;;;15.40;;
52614;SDS011;38508;53.158;6.614;2023-04-10T10:17:27;24.70;;;15.18;;
52614;SDS011;38508;53.158;6.614;2023-04-10T10:20:04;21.25;;;13.75;;
52614;SDS011;38508;53.158;6.614;2023-04-10T10:22:33;24.98;;;14.32;;
52614;SDS011;38508;53.158;6.614;2023-04-10T10:25:01;24.40;;;14.85;;
52614;SDS011;38508;53.158;6.614;2023-04-10T10:27:27;22.30;;;13.32;;
52614;SDS011;38508;53.158;6.614;2023-04-10T10:29:56;23.58;;;15.13;;
52614;SDS011;38508;53.158;6.614;2023-04-10T10:32:24;24.23;;;15.13;;
52614;SDS011;38508;53.158;6.614;2023-04-10T10:34:52;24.35;;;14.25;;
52614;SDS011;38508;53.158;6.614;2023-04-10T10:37:18;25.08;;;16.05;;
52614;SDS011;38508;53.158;6.614;2023-04-10T10:42:41;18.30;;;10.98;;
52614;SDS011;38508;53.158;6.614;2023-04-10T10:45:15;17.50;;;11.00;;
52614;SDS011;38508;53.158;6.614;2023-04-10T10:47:54;18.90;;;9.82;;
52614;SDS011;38508;53.158;6.614;2023-04-10T10:50:20;15.60;;;10.18;;
52614;SDS011;38508;53.158;6.614;2023-04-10T10:52:54;15.63;;;9.73;;
52614;SDS011;38508;53.158;6.614;2023-04-10T10:57:49;15.43;;;9.52;;
52614;SDS011;38508;53.158;6.614;2023-04-10T11:00:16;15.95;;;9.25;;
52614;SDS011;38508;53.158;6.614;2023-04-10T11:02:42;14.18;;;8.85;;
52614;SDS011;38508;53.158;6.614;2023-04-10T11:05:08;13.90;;;9.10;;
52614;SDS011;38508;53.158;6.614;2023-04-10T11:13:32;13.57;;;8.75;;
52614;SDS011;38508;53.158;6.614;2023-04-10T11:15:59;12.68;;;7.65;;
52614;SDS011;38508;53.158;6.614;2023-04-10T11:21:11;11.70;;;7.97;;
52614;SDS011;38508;53.158;6.614;2023-04-10T11:31:55;11.00;;;7.20;;
52614;SDS011;38508;53.158;6.614;2023-04-10T11:34:22;10.52;;;7.15;;
52614;SDS011;38508;53.158;6.614;2023-04-10T11:36:48;10.45;;;6.80;;
52614;SDS011;38508;53.158;6.614;2023-04-10T11:39:14;9.40;;;6.30;;
52614;SDS011;38508;53.158;6.614;2023-04-10T11:41:45;10.48;;;6.70;;
52614;SDS011;38508;53.158;6.614;2023-04-10T11:44:33;10.40;;;6.43;;
52614;SDS011;38508;53.158;6.614;2023-04-10T11:47:03;10.02;;;6.20;;
52614;SDS011;38508;53.158;6.614;2023-04-10T11:49:30;8.30;;;5.63;;
52614;SDS011;38508;53.158;6.614;2023-04-10T11:51:58;9.55;;;5.78;;
52614;SDS011;38508;53.158;6.614;2023-04-10T11:54:25;14.00;;;5.75;;
52614;SDS011;38508;53.158;6.614;2023-04-10T11:59:26;7.70;;;5.00;;
52614;SDS011;38508;53.158;6.614;2023-04-10T12:01:53;8.43;;;5.50;;
52614;SDS011;38508;53.158;6.614;2023-04-10T12:04:31;9.20;;;5.47;;
52614;SDS011;38508;53.158;6.614;2023-04-10T12:06:58;10.80;;;5.10;;
52614;SDS011;38508;53.158;6.614;2023-04-10T12:09:23;7.07;;;4.47;;
52614;SDS011;38508;53.158;6.614;2023-04-10T12:14:29;9.80;;;4.88;;
52614;SDS011;38508;53.158;6.614;2023-04-10T12:16:56;44.13;;;7.95;;
52614;SDS011;38508;53.158;6.614;2023-04-10T12:19:22;5.97;;;4.32;;
52614;SDS011;38508;53.158;6.614;2023-04-10T12:21:48;6.72;;;4.25;;
52614;SDS011;38508;53.158;6.614;2023-04-10T12:24:39;7.15;;;4.50;;
52614;SDS011;38508;53.158;6.614;2023-04-10T12:27:19;15.02;;;4.32;;
52614;SDS011;38508;53.158;6.614;2023-04-10T12:29:52;8.18;;;4.30;;
52614;SDS011;38508;53.158;6.614;2023-04-10T12:32:19;6.00;;;4.00;;
52614;SDS011;38508;53.158;6.614;2023-04-10T12:34:55;7.20;;;3.88;;
52614;SDS011;38508;53.158;6.614;2023-04-10T12:37:22;7.95;;;3.90;;
52614;SDS011;38508;53.158;6.614;2023-04-10T12:39:49;5.85;;;3.88;;
52614;SDS011;38508;53.158;6.614;2023-04-10T12:42:22;5.53;;;3.65;;
52614;SDS011;38508;53.158;6.614;2023-04-10T12:44:54;5.95;;;3.58;;
52614;SDS011;38508;53.158;6.614;2023-04-10T12:47:24;9.85;;;4.18;;
52614;SDS011;38508;53.158;6.614;2023-04-10T12:50:09;5.78;;;4.00;;
52614;SDS011;38508;53.158;6.614;2023-04-10T12:52:39;5.85;;;3.95;;
52614;SDS011;38508;53.158;6.614;2023-04-10T12:55:15;7.13;;;4.15;;
52614;SDS011;38508;53.158;6.614;2023-04-10T12:57:47;7.88;;;4.38;;
52614;SDS011;38508;53.158;6.614;2023-04-10T13:00:16;8.63;;;4.00;;
52614;SDS011;38508;53.158;6.614;2023-04-10T13:02:44;5.55;;;3.72;;
52614;SDS011;38508;53.158;6.614;2023-04-10T13:05:11;7.65;;;4.18;;
52614;SDS011;38508;53.158;6.614;2023-04-10T13:07:37;9.23;;;3.88;;
52614;SDS011;38508;53.158;6.614;2023-04-10T13:10:03;6.53;;;4.07;;
52614;SDS011;38508;53.158;6.614;2023-04-10T13:12:30;7.32;;;4.13;;
52614;SDS011;38508;53.158;6.614;2023-04-10T13:14:56;9.02;;;4.78;;
52614;SDS011;38508;53.158;6.614;2023-04-10T13:17:23;6.57;;;4.38;;
52614;SDS011;38508;53.158;6.614;2023-04-10T13:19:50;6.47;;;4.15;;
52614;SDS011;38508;53.158;6.614;2023-04-10T13:22:16;6.88;;;4.20;;
52614;SDS011;38508;53.158;6.614;2023-04-10T13:24:42;6.50;;;4.03;;
52614;SDS011;38508;53.158;6.614;2023-04-10T13:27:08;7.80;;;4.00;;
52614;SDS011;38508;53.158;6.614;2023-04-10T13:29:41;9.38;;;4.43;;
52614;SDS011;38508;53.158;6.614;2023-04-10T13:32:07;5.57;;;4.03;;
52614;SDS011;38508;53.158;6.614;2023-04-10T13:34:33;7.88;;;4.13;;
52614;SDS011;38508;53.158;6.614;2023-04-10T13:36:59;8.73;;;4.85;;
52614;SDS011;38508;53.158;6.614;2023-04-10T13:39:26;7.32;;;4.55;;
52614;SDS011;38508;53.158;6.614;2023-04-10T13:41:53;7.43;;;4.75;;
52614;SDS011;38508;53.158;6.614;2023-04-10T13:44:19;6.15;;;4.68;;
52614;SDS011;38508;53.158;6.614;2023-04-10T13:46:44;7.32;;;4.55;;
52614;SDS011;38508;53.158;6.614;2023-04-10T13:49:10;7.25;;;4.93;;
52614;SDS011;38508;53.158;6.614;2023-04-10T13:51:36;6.95;;;4.18;;
52614;SDS011;38508;53.158;6.614;2023-04-10T13:54:02;6.55;;;4.20;;
52614;SDS011;38508;53.158;6.614;2023-04-10T13:56:28;5.88;;;4.10;;
52614;SDS011;38508;53.158;6.614;2023-04-10T13:58:54;6.90;;;4.47;;
52614;SDS011;38508;53.158;6.614;2023-04-10T14:01:20;7.05;;;4.53;;
52614;SDS011;38508;53.158;6.614;2023-04-10T14:03:46;7.50;;;4.80;;
52614;SDS011;38508;53.158;6.614;2023-04-10T14:06:11;6.28;;;4.70;;
52614;SDS011;38508;53.158;6.614;2023-04-10T14:08:38;7.47;;;4.72;;
52614;SDS011;38508;53.158;6.614;2023-04-10T14:11:04;6.63;;;4.45;;
52614;SDS011;38508;53.158;6.614;2023-04-10T14:13:30;9.73;;;4.30;;
52614;SDS011;38508;53.158;6.614;2023-04-10T14:15:55;6.95;;;4.93;;
52614;SDS011;38508;53.158;6.614;2023-04-10T14:18:21;7.15;;;4.70;;
52614;SDS011;38508;53.158;6.614;2023-04-10T14:20:47;9.27;;;4.90;;
52614;SDS011;38508;53.158;6.614;2023-04-10T14:23:12;8.13;;;4.47;;
52614;SDS011;38508;53.158;6.614;2023-04-10T14:25:45;7.15;;;4.30;;
52614;SDS011;38508;53.158;6.614;2023-04-10T14:28:12;8.00;;;4.35;;
52614;SDS011;38508;53.158;6.614;2023-04-10T14:30:45;7.95;;;4.55;;
52614;SDS011;38508;53.158;6.614;2023-04-10T14:33:12;7.13;;;4.47;;
52614;SDS011;38508;53.158;6.614;2023-04-10T14:35:38;9.45;;;4.50;;
52614;SDS011;38508;53.158;6.614;2023-04-10T14:38:04;9.05;;;4.60;;
52614;SDS011;38508;53.158;6.614;2023-04-10T14:40:30;7.07;;;4.60;;
52614;SDS011;38508;53.158;6.614;2023-04-10T14:42:56;6.45;;;4.30;;
52614;SDS011;38508;53.158;6.614;2023-04-10T14:45:21;7.97;;;4.03;;
52614;SDS011;38508;53.158;6.614;2023-04-10T14:47:47;5.93;;;3.78;;
52614;SDS011;38508;53.158;6.614;2023-04-10T14:50:13;6.55;;;3.92;;
52614;SDS011;38508;53.158;6.614;2023-04-10T14:52:38;10.60;;;4.03;;
52614;SDS011;38508;53.158;6.614;2023-04-10T14:55:04;9.93;;;4.00;;
52614;SDS011;38508;53.158;6.614;2023-04-10T14:57:30;11.23;;;4.25;;
52614;SDS011;38508;53.158;6.614;2023-04-10T14:59:56;5.53;;;3.83;;
52614;SDS011;38508;53.158;6.614;2023-04-10T15:02:21;5.20;;;3.70;;
52614;SDS011;38508;53.158;6.614;2023-04-10T15:04:47;7.05;;;4.35;;
52614;SDS011;38508;53.158;6.614;2023-04-10T15:07:13;6.30;;;3.90;;
52614;SDS011;38508;53.158;6.614;2023-04-10T15:09:38;7.85;;;4.20;;
52614;SDS011;38508;53.158;6.614;2023-04-10T15:12:05;6.00;;;4.15;;
52614;SDS011;38508;53.158;6.614;2023-04-10T15:14:31;4.88;;;3.63;;
52614;SDS011;38508;53.158;6.614;2023-04-10T15:16:56;8.32;;;4.60;;